createdAt,value
2023-05-12T00:00:57.201Z,100308.25
2023-05-12T00:11:01.241Z,100305.78
2023-05-12T00:21:04.148Z,100304.94
2023-05-12T00:31:08.985Z,100295.44
2023-05-12T00:41:10.789Z,100296.28
2023-05-12T00:51:13.555Z,100290.16
2023-05-12T01:01:15.386Z,100269.50
2023-05-12T01:11:17.402Z,100283.34
2023-05-12T01:21:26.695Z,100271.19
2023-05-12T01:31:29.472Z,100291.06
2023-05-12T01:41:31.376Z,100279.94
2023-05-12T01:51:33.042Z,100296.41
2023-05-12T02:01:34.938Z,100305.84
2023-05-12T02:11:40.146Z,100301.59
2023-05-12T02:21:41.895Z,100315.34
2023-05-12T02:31:43.894Z,100307.69
2023-05-12T02:41:45.646Z,100318.09
2023-05-12T02:51:48.848Z,100322.44
2023-05-12T03:01:51.883Z,100324.16
2023-05-12T03:11:53.849Z,100314.75
2023-05-12T03:22:04.270Z,100319.03
2023-05-12T03:32:07.661Z,100319.06
2023-05-12T03:42:14.339Z,100328.59
2023-05-12T03:52:19.036Z,100327.72
2023-05-12T04:02:20.845Z,100323.28
2023-05-12T04:12:23.767Z,100349.22
2023-05-12T04:22:25.929Z,100344.75
2023-05-12T04:32:27.812Z,100346.34
2023-05-12T04:42:30.025Z,100351.44
2023-05-12T04:52:32.193Z,100350.41
2023-05-12T05:02:34.063Z,100352.84
2023-05-12T05:12:36.957Z,100352.84
2023-05-12T05:22:39.635Z,100350.13
2023-05-12T05:32:43.796Z,100357.16
2023-05-12T05:42:49.476Z,100360.44
2023-05-12T05:52:52.034Z,100371.53
2023-05-12T06:02:54.082Z,100381.81
2023-05-12T06:13:00.456Z,100379.00
2023-05-12T06:23:03.302Z,100378.97
2023-05-12T06:33:07.114Z,100387.75
2023-05-12T06:43:09.000Z,100387.69
2023-05-12T06:53:12.064Z,100384.06
2023-05-12T07:03:15.081Z,100385.41
2023-05-12T07:13:20.111Z,100384.44
2023-05-12T07:23:22.854Z,100382.31
2023-05-12T07:33:37.730Z,100390.00
2023-05-12T07:43:40.308Z,100390.56
2023-05-12T07:53:43.431Z,100394.81
2023-05-12T08:03:45.175Z,100399.66
2023-05-12T08:13:51.208Z,100399.41
2023-05-12T08:23:52.839Z,100401.38
2023-05-12T08:34:09.145Z,100411.88
2023-05-12T08:44:14.927Z,100419.69
2023-05-12T08:54:19.169Z,100425.00
2023-05-12T09:04:20.978Z,100437.63
2023-05-12T09:14:33.553Z,100444.84
2023-05-12T09:24:40.800Z,100448.06
2023-05-12T09:34:51.647Z,100456.78
2023-05-12T09:44:53.631Z,100461.84
2023-05-12T09:54:55.545Z,100466.00
2023-05-12T10:05:03.202Z,100467.19
2023-05-12T10:15:07.219Z,100475.88
2023-05-12T10:25:09.868Z,100472.47
2023-05-12T10:35:13.300Z,100471.50
2023-05-12T10:45:25.131Z,100465.00
2023-05-12T10:55:52.779Z,100479.72
2023-05-12T11:06:05.466Z,100472.59
2023-05-12T11:16:12.879Z,100472.78
2023-05-12T11:26:19.143Z,100471.59
2023-05-12T11:36:21.769Z,100472.03
2023-05-12T11:46:29.865Z,100463.22
2023-05-12T11:56:32.964Z,100464.47
2023-05-12T12:06:44.273Z,100470.66
2023-05-12T12:16:46.918Z,100475.06
2023-05-12T12:26:49.131Z,100479.41
2023-05-12T12:36:51.615Z,100479.53
2023-05-12T12:47:03.150Z,100474.50
2023-05-12T12:57:04.990Z,100478.84
2023-05-12T13:07:07.189Z,100471.00
2023-05-12T13:17:13.293Z,100463.22
2023-05-12T13:27:16.122Z,100471.75
2023-05-12T13:37:18.036Z,100472.53
2023-05-12T13:47:19.939Z,100477.84
2023-05-12T13:57:23.494Z,100474.53
2023-05-12T14:07:26.600Z,100471.91
2023-05-12T14:17:29.309Z,100476.41
2023-05-12T14:27:33.017Z,100492.88
2023-05-12T14:37:34.618Z,100502.34
2023-05-12T14:47:36.745Z,100515.38
2023-05-12T14:57:42.098Z,100534.25
2023-05-12T15:07:44.055Z,100521.34
2023-05-12T15:17:49.120Z,100540.38
2023-05-12T15:27:52.075Z,100525.69
2023-05-12T15:37:54.554Z,100540.28
2023-05-12T15:47:56.865Z,100534.28
2023-05-12T15:58:01.326Z,100531.63
2023-05-12T16:08:05.041Z,100539.38
2023-05-12T16:18:09.930Z,100535.97
2023-05-12T16:28:12.918Z,100540.31
2023-05-12T16:38:20.788Z,100547.28
2023-05-12T16:48:26.503Z,100547.28
2023-05-12T16:58:35.964Z,100549.03
2023-05-12T17:08:44.697Z,100550.78
2023-05-12T17:28:54.368Z,100573.16
2023-05-12T17:38:57.233Z,100576.63
2023-05-12T17:48:58.976Z,100594.72
2023-05-12T17:59:04.766Z,100599.00
2023-05-12T18:09:08.771Z,100599.00
2023-05-12T18:19:16.015Z,100597.28
2023-05-12T18:29:19.904Z,100601.56
2023-05-12T18:39:21.859Z,100600.72
2023-05-12T18:49:30.721Z,100611.03
2023-05-12T18:59:34.190Z,100611.00
2023-05-12T19:09:37.287Z,100620.50
2023-05-12T19:19:39.911Z,100629.09
2023-05-12T19:29:49.649Z,100642.03
2023-05-12T19:39:51.828Z,100642.03
2023-05-12T19:49:54.600Z,100649.75
2023-05-12T19:59:57.335Z,100652.34
2023-05-12T20:10:01.106Z,100652.34
2023-05-12T20:20:04.239Z,100654.09
2023-05-12T20:30:07.892Z,100641.19
2023-05-12T20:40:11.044Z,100639.47
2023-05-12T20:50:12.841Z,100642.88
2023-05-12T21:00:17.320Z,100648.94
2023-05-12T21:10:19.404Z,100655.81
2023-05-12T21:20:23.827Z,100649.78
2023-05-12T21:30:25.583Z,100659.25
2023-05-12T21:40:31.845Z,100661.84
2023-05-12T21:50:37.069Z,100660.13
2023-05-12T22:00:41.157Z,100647.22
2023-05-12T22:10:43.476Z,100649.78
2023-05-12T22:20:51.160Z,100648.06
2023-05-12T22:30:53.841Z,100647.19
2023-05-12T22:40:55.752Z,100642.06
2023-05-12T22:51:03.705Z,100642.91
2023-05-12T23:01:06.064Z,100632.56
2023-05-12T23:11:09.752Z,100629.97
2023-05-12T23:21:11.487Z,100619.63
2023-05-12T23:31:13.542Z,100615.34
2023-05-12T23:41:15.246Z,100613.63
2023-05-12T23:51:17.136Z,100610.16
